Terminal Aerodrome Forecast
Issued by NWS

Home | Current Version | Previous Version | Text Only | Print | Product List | Glossary On
Versions: 1 2 3 4 5 6 7 8 9 10 11 12 13 14 15 16 17
000
FTUS42 KTBW 231144
TAFRSW
TAF
KRSW 231144Z 2312/2412 28013G20KT P6SM VCSH BKN040 OVC070
      TEMPO 2312/2313 28020G35KT 3SM SHRA OVC040
     FM231600 30022G32KT P6SM SCT030 BKN050
     FM240200 32012KT P6SM SCT040 SCT250=

USA.gov is the U.S. government's official web portal to all federal, state and local government web resources and services.